createdAt,value
2022-08-26T00:02:13.337Z,100083.69
2022-08-26T00:05:17.152Z,100081.97
2022-08-26T00:08:21.247Z,100077.63
2022-08-26T00:11:26.639Z,100079.41
2022-08-26T00:14:30.938Z,100080.84
2022-08-26T00:17:33.701Z,100082.03
2022-08-26T00:20:38.758Z,100079.53
2022-08-26T00:23:44.962Z,100075.09
2022-08-26T00:26:48.346Z,100085.72
2022-08-26T00:29:50.035Z,100084.81
2022-08-26T00:32:52.984Z,100079.59
2022-08-26T00:35:55.570Z,100085.75
2022-08-26T00:38:58.332Z,100080.53
2022-08-26T00:42:00.664Z,100079.56
2022-08-26T00:45:11.715Z,100077.75
2022-08-26T00:48:18.348Z,100079.56
2022-08-26T00:51:23.463Z,100077.81
2022-08-26T00:54:32.923Z,100081.41
2022-08-26T00:57:36.271Z,100074.34
2022-08-26T01:00:38.583Z,100078.81
2022-08-26T01:03:46.337Z,100078.88
2022-08-26T01:06:50.298Z,100077.09
2022-08-26T01:09:52.415Z,100076.22
2022-08-26T01:13:01.984Z,100080.69
2022-08-26T01:16:08.328Z,100077.22
2022-08-26T01:19:19.615Z,100077.41
2022-08-26T01:22:35.686Z,100082.81
2022-08-26T01:25:43.084Z,100081.97
2022-08-26T01:28:46.122Z,100083.88
2022-08-26T01:31:57.885Z,100075.97
2022-08-26T01:35:00.906Z,100077.75
2022-08-26T01:38:03.394Z,100077.81
2022-08-26T01:41:16.026Z,100075.16
2022-08-26T01:44:24.109Z,100072.66
2022-08-26T01:47:27.957Z,100076.25
2022-08-26T01:50:35.382Z,100070.00
2022-08-26T01:53:39.411Z,100070.91
2022-08-26T01:56:44.271Z,100062.91
2022-08-26T01:59:48.126Z,100065.66
2022-08-26T02:03:14.789Z,100066.59
2022-08-26T02:06:16.621Z,100068.41
2022-08-26T02:09:19.846Z,100063.97
2022-08-26T02:12:22.912Z,100063.13
2022-08-26T02:15:24.642Z,100056.03
2022-08-26T02:18:29.592Z,100053.47
2022-08-26T02:21:33.051Z,100048.22
2022-08-26T02:24:50.859Z,100051.75
2022-08-26T02:27:53.248Z,100038.50
2022-08-26T02:30:55.751Z,100040.41
2022-08-26T02:34:08.629Z,100036.87
2022-08-26T02:37:12.878Z,100038.62
2022-08-26T02:40:17.156Z,100046.47
2022-08-26T02:43:18.896Z,100040.31
2022-08-26T02:46:33.548Z,100042.22
2022-08-26T02:49:37.724Z,100044.97
2022-08-26T02:52:40.399Z,100045.84
2022-08-26T02:55:42.801Z,100042.38
2022-08-26T02:58:45.254Z,100045.91
2022-08-26T03:01:49.432Z,100050.31
2022-08-26T03:04:57.424Z,100048.53
2022-08-26T03:08:04.358Z,100044.97
2022-08-26T03:11:06.131Z,100051.13
2022-08-26T03:14:08.510Z,100054.75
2022-08-26T03:17:10.513Z,100057.34
2022-08-26T03:20:13.643Z,100053.94
2022-08-26T03:23:17.191Z,100055.59
2022-08-26T03:26:21.395Z,100050.25
2022-08-26T03:29:42.731Z,100050.44
2022-08-26T03:32:45.615Z,100049.47
2022-08-26T03:35:50.551Z,100044.16
2022-08-26T03:38:52.812Z,100050.53
2022-08-26T03:41:55.466Z,100046.25
2022-08-26T03:44:57.504Z,100039.12
2022-08-26T03:48:00.019Z,100048.03
2022-08-26T03:51:02.311Z,100038.38
2022-08-26T03:54:05.997Z,100041.53
2022-08-26T03:57:10.259Z,100035.47
2022-08-26T04:00:18.252Z,100043.56
2022-08-26T04:03:40.397Z,100043.63
2022-08-26T04:06:44.527Z,100046.41
2022-08-26T04:09:46.400Z,100049.06
2022-08-26T04:12:48.463Z,100039.44
2022-08-26T04:15:50.871Z,100041.28
2022-08-26T04:18:52.510Z,100043.91
2022-08-26T04:21:54.477Z,100049.19
2022-08-26T04:24:56.272Z,100038.53
2022-08-26T04:27:58.195Z,100036.69
2022-08-26T04:31:00.265Z,100042.91
2022-08-26T04:34:02.833Z,100037.59
2022-08-26T04:37:05.958Z,100042.88
2022-08-26T04:40:10.231Z,100038.41
2022-08-26T04:43:12.986Z,100046.00
2022-08-26T04:46:19.725Z,100041.47
2022-08-26T04:49:21.621Z,100042.34
2022-08-26T04:52:24.153Z,100042.25
2022-08-26T04:55:38.727Z,100047.25
2022-08-26T04:58:41.986Z,100049.78
2022-08-26T05:01:50.293Z,100040.16
2022-08-26T05:04:52.857Z,100046.94
2022-08-26T05:07:54.537Z,100047.84
2022-08-26T05:10:57.104Z,100045.91
2022-08-26T05:14:02.136Z,100042.97
2022-08-26T05:17:04.749Z,100042.78
2022-08-26T05:20:07.361Z,100045.22
2022-08-26T05:23:09.575Z,100044.00
2022-08-26T05:26:11.763Z,100049.03
2022-08-26T05:29:14.427Z,100044.72
2022-08-26T05:32:16.335Z,100032.19
2022-08-26T05:35:18.423Z,100042.56
2022-08-26T05:38:21.858Z,100037.72
2022-08-26T05:41:34.145Z,100036.50
2022-08-26T05:44:55.534Z,100037.94
2022-08-26T05:47:58.052Z,100043.63
2022-08-26T05:51:05.008Z,100046.19
2022-08-26T05:54:10.368Z,100045.44
2022-08-26T05:57:13.901Z,100048.16
2022-08-26T06:00:16.213Z,100045.81
2022-08-26T06:03:18.909Z,100053.81
2022-08-26T06:06:29.684Z,100049.88
2022-08-26T06:09:31.692Z,100046.34
2022-08-26T06:12:34.513Z,100046.81
2022-08-26T06:15:39.899Z,100054.75
2022-08-26T06:18:45.860Z,100059.34
2022-08-26T06:21:51.276Z,100057.78
2022-08-26T06:25:15.256Z,100062.81
2022-08-26T06:28:17.808Z,100058.50
2022-08-26T06:31:20.046Z,100055.62
2022-08-26T06:34:22.024Z,100058.06
2022-08-26T06:37:24.077Z,100058.09
2022-08-26T06:40:25.845Z,100059.50
2022-08-26T06:43:29.506Z,100057.06
2022-08-26T06:46:31.745Z,100058.69
2022-08-26T06:49:33.644Z,100064.44
2022-08-26T06:52:35.372Z,100061.53
2022-08-26T06:55:42.206Z,100061.47
2022-08-26T06:58:44.774Z,100062.59
2022-08-26T07:01:46.661Z,100067.63
2022-08-26T07:04:48.552Z,100066.03
2022-08-26T07:07:52.965Z,100068.69
2022-08-26T07:10:55.972Z,100071.31
2022-08-26T07:13:59.008Z,100077.94
2022-08-26T07:17:02.717Z,100077.97
2022-08-26T07:20:08.413Z,100072.00
2022-08-26T07:23:11.851Z,100077.22
2022-08-26T07:26:18.258Z,100070.94
2022-08-26T07:29:20.145Z,100074.78
2022-08-26T07:32:26.233Z,100067.09
2022-08-26T07:35:28.526Z,100064.59
2022-08-26T07:38:30.237Z,100064.22
2022-08-26T07:41:36.630Z,100057.31
2022-08-26T07:44:39.699Z,100056.22
2022-08-26T07:47:42.550Z,100053.38
2022-08-26T07:50:48.932Z,100051.38
2022-08-26T07:53:53.387Z,100056.72
2022-08-26T07:56:55.870Z,100052.59
2022-08-26T07:59:58.969Z,100044.53
2022-08-26T08:03:01.573Z,100056.53
2022-08-26T08:06:03.313Z,100055.78
2022-08-26T08:09:05.662Z,100041.19
2022-08-26T08:12:09.499Z,100050.94
2022-08-26T08:15:20.139Z,100043.81
2022-08-26T08:18:23.391Z,100036.25
2022-08-26T08:21:26.460Z,100034.06
2022-08-26T08:24:28.985Z,100031.88
2022-08-26T08:27:34.067Z,100035.19
2022-08-26T08:30:39.716Z,100022.09
2022-08-26T08:33:42.391Z,100030.37
2022-08-26T08:36:46.463Z,100026.53
2022-08-26T08:39:49.005Z,100031.31
2022-08-26T08:43:06.423Z,100029.22
2022-08-26T08:46:15.558Z,100021.75
2022-08-26T08:49:18.940Z,100030.91
2022-08-26T08:52:31.201Z,100020.13
2022-08-26T08:55:55.611Z,100020.16
2022-08-26T08:59:18.655Z,100013.28
2022-08-26T09:02:31.810Z,100011.09
2022-08-26T09:05:46.679Z,100017.22
2022-08-26T09:08:51.564Z,100010.75
2022-08-26T09:11:56.283Z,100011.88
2022-08-26T09:15:18.563Z,100006.78
2022-08-26T09:18:29.357Z,100006.31
2022-08-26T09:21:32.191Z,100008.78
2022-08-26T09:24:41.934Z,100005.41
2022-08-26T09:27:53.323Z,100004.25
2022-08-26T09:31:22.396Z,100004.41
2022-08-26T09:34:28.052Z,100004.34
2022-08-26T09:37:41.757Z,100010.19
2022-08-26T09:40:59.426Z,100011.00
2022-08-26T09:44:04.355Z,100013.28
2022-08-26T09:47:07.595Z,100015.22
2022-08-26T09:50:29.551Z,100013.37
2022-08-26T09:53:37.682Z,99999.38
2022-08-26T09:56:39.743Z,99994.78
2022-08-26T09:59:41.715Z,99996.91
2022-08-26T10:02:47.552Z,100003.34
2022-08-26T10:06:00.221Z,100001.56
2022-08-26T10:09:08.320Z,99994.72
2022-08-26T10:12:19.390Z,99993.72
2022-08-26T10:15:24.221Z,99991.34
2022-08-26T10:18:33.881Z,99987.72
2022-08-26T10:21:55.638Z,99982.06
2022-08-26T10:25:02.664Z,99981.88
2022-08-26T10:28:23.383Z,99979.09
2022-08-26T10:31:40.551Z,99974.38
2022-08-26T10:34:43.871Z,99975.50
2022-08-26T10:37:49.969Z,99975.22
2022-08-26T10:41:14.344Z,99968.94
2022-08-26T10:44:20.846Z,99959.12
2022-08-26T10:47:39.328Z,99952.97
2022-08-26T10:50:44.956Z,99959.44
2022-08-26T10:53:59.286Z,99953.13
2022-08-26T10:57:25.460Z,99947.84
2022-08-26T11:00:55.964Z,99945.59
2022-08-26T11:04:23.559Z,99942.94
2022-08-26T11:07:36.304Z,99932.78
2022-08-26T11:10:59.334Z,99936.53
2022-08-26T11:14:05.105Z,99927.44
2022-08-26T11:17:11.433Z,99929.91
2022-08-26T11:20:33.442Z,99924.63
2022-08-26T11:23:50.592Z,99929.06
2022-08-26T11:26:55.364Z,99924.91
2022-08-26T11:30:05.529Z,99925.31
2022-08-26T11:33:08.308Z,99922.03
2022-08-26T11:36:12.264Z,99914.75
2022-08-26T11:39:49.331Z,99924.37
2022-08-26T11:43:18.759Z,99919.06
2022-08-26T11:46:30.400Z,99899.12
2022-08-26T11:49:33.329Z,99901.13
2022-08-26T11:52:35.157Z,99897.97
2022-08-26T11:55:43.431Z,99905.34
2022-08-26T11:58:47.094Z,99903.00
2022-08-26T12:01:51.542Z,99891.06
2022-08-26T12:04:54.821Z,99896.38
2022-08-26T12:08:07.270Z,99896.63
2022-08-26T12:11:13.786Z,99893.00
2022-08-26T12:14:21.998Z,99883.16
2022-08-26T12:17:27.872Z,99877.16
2022-08-26T12:20:48.939Z,99878.72
2022-08-26T12:23:54.652Z,99863.22
2022-08-26T12:27:32.100Z,99871.78
2022-08-26T12:30:33.830Z,99864.94
2022-08-26T12:33:36.729Z,99869.63
2022-08-26T12:40:35.470Z,99847.69
2022-08-26T12:43:39.490Z,99850.91
2022-08-26T12:46:41.206Z,99844.12
2022-08-26T12:49:44.118Z,99845.06
2022-08-26T12:53:11.816Z,99838.12
2022-08-26T12:56:29.528Z,99834.44
2022-08-26T12:59:31.505Z,99831.91
2022-08-26T13:02:40.095Z,99836.75
2022-08-26T13:05:41.963Z,99837.97
2022-08-26T13:08:49.690Z,99831.47
2022-08-26T13:11:53.186Z,99834.94
2022-08-26T13:14:56.161Z,99833.84
2022-08-26T13:17:58.238Z,99832.13
2022-08-26T13:21:00.299Z,99818.56
2022-08-26T13:24:11.837Z,99817.69
2022-08-26T13:27:15.030Z,99819.75
2022-08-26T13:30:16.932Z,99813.81
2022-08-26T13:33:18.839Z,99809.09
2022-08-26T13:36:21.998Z,99815.88
2022-08-26T13:39:25.139Z,99817.84
2022-08-26T13:42:27.043Z,99816.59
2022-08-26T13:45:28.766Z,99803.31
2022-08-26T13:48:31.786Z,99799.84
2022-08-26T13:51:34.265Z,99795.41
2022-08-26T13:54:36.321Z,99791.91
2022-08-26T13:57:38.575Z,99798.09
2022-08-26T14:00:42.330Z,99800.44
2022-08-26T14:03:44.485Z,99792.41
2022-08-26T14:06:46.299Z,99792.38
2022-08-26T14:09:50.278Z,99789.69
2022-08-26T14:12:52.930Z,99787.56
2022-08-26T14:15:55.019Z,99792.88
2022-08-26T14:18:56.808Z,99797.81
2022-08-26T14:22:00.917Z,99788.25
2022-08-26T14:25:03.140Z,99786.19
2022-08-26T14:28:05.027Z,99777.69
2022-08-26T14:31:07.228Z,99777.72
2022-08-26T14:34:09.802Z,99776.53
2022-08-26T14:37:15.186Z,99782.09
2022-08-26T14:40:19.071Z,99783.19
2022-08-26T14:43:20.794Z,99777.91
2022-08-26T14:46:22.689Z,99780.28
2022-08-26T14:49:27.275Z,99777.66
2022-08-26T14:52:29.777Z,99781.63
2022-08-26T14:55:34.755Z,99788.63
2022-08-26T14:58:36.617Z,99777.16
2022-08-26T15:01:38.394Z,99789.44
2022-08-26T15:04:41.410Z,99784.09
2022-08-26T15:07:43.164Z,99787.87
2022-08-26T15:10:45.072Z,99786.97
2022-08-26T15:13:47.381Z,99789.72
2022-08-26T15:16:51.489Z,99785.78
2022-08-26T15:19:53.356Z,99784.47
2022-08-26T15:22:55.047Z,99787.94
2022-08-26T15:25:57.558Z,99784.22
2022-08-26T15:29:04.252Z,99774.00
2022-08-26T15:32:06.663Z,99767.13
2022-08-26T15:35:09.388Z,99769.81
2022-08-26T15:38:11.824Z,99762.84
2022-08-26T15:41:14.406Z,99759.22
2022-08-26T15:44:19.989Z,99757.53
2022-08-26T15:47:22.276Z,99754.00
2022-08-26T15:50:25.490Z,99757.81
2022-08-26T15:53:30.531Z,99755.09
2022-08-26T15:56:34.984Z,99753.22
2022-08-26T15:59:36.973Z,99751.53
2022-08-26T16:02:39.050Z,99749.66
2022-08-26T16:05:45.615Z,99750.97
2022-08-26T16:08:47.328Z,99744.34
2022-08-26T16:11:49.368Z,99746.09
2022-08-26T16:14:51.586Z,99743.28
2022-08-26T16:17:54.831Z,99741.13
2022-08-26T16:21:12.452Z,99741.44
2022-08-26T16:24:16.074Z,99745.31
2022-08-26T16:27:17.869Z,99741.97
2022-08-26T16:30:21.520Z,99740.19
2022-08-26T16:33:29.438Z,99734.66
2022-08-26T16:36:32.069Z,99738.78
2022-08-26T16:39:33.876Z,99737.81
2022-08-26T16:42:42.229Z,99741.72
2022-08-26T16:45:43.878Z,99748.19
2022-08-26T16:48:45.861Z,99737.81
2022-08-26T16:51:47.524Z,99738.31
2022-08-26T16:54:49.483Z,99737.00
2022-08-26T16:57:53.037Z,99740.25
2022-08-26T17:00:54.827Z,99739.69
2022-08-26T17:03:57.202Z,99733.41
2022-08-26T17:06:59.960Z,99739.25
2022-08-26T17:10:03.256Z,99739.63
2022-08-26T17:13:05.070Z,99740.50
2022-08-26T17:16:10.949Z,99741.94
2022-08-26T17:19:12.720Z,99743.81
2022-08-26T17:22:16.353Z,99749.16
2022-08-26T17:25:28.178Z,99749.87
2022-08-26T17:28:29.996Z,99758.25
2022-08-26T17:31:32.573Z,99758.13
2022-08-26T17:34:34.743Z,99764.72
2022-08-26T17:37:36.984Z,99759.94
2022-08-26T17:40:39.611Z,99756.28
2022-08-26T17:43:41.600Z,99775.25
2022-08-26T17:46:43.577Z,99774.19
2022-08-26T17:49:45.706Z,99776.56
2022-08-26T17:52:47.373Z,99771.03
2022-08-26T17:55:49.928Z,99773.13
2022-08-26T17:58:53.839Z,99777.25
2022-08-26T18:01:58.686Z,99780.41
2022-08-26T18:05:00.519Z,99782.97
2022-08-26T18:08:02.634Z,99792.56
2022-08-26T18:11:12.551Z,99784.06
2022-08-26T18:14:14.554Z,99784.66
2022-08-26T18:17:19.411Z,99781.28
2022-08-26T18:20:21.491Z,99783.25
2022-08-26T18:23:23.431Z,99783.47
2022-08-26T18:26:31.840Z,99783.34
2022-08-26T18:29:33.682Z,99788.41
2022-08-26T18:32:36.027Z,99786.59
2022-08-26T18:35:42.227Z,99787.19
2022-08-26T18:38:45.393Z,99776.16
2022-08-26T18:41:52.653Z,99781.38
2022-08-26T18:44:54.511Z,99778.78
2022-08-26T18:47:56.419Z,99782.16
2022-08-26T18:51:00.679Z,99776.03
2022-08-26T18:54:05.541Z,99780.59
2022-08-26T18:57:07.446Z,99770.75
2022-08-26T19:00:11.152Z,99777.91
2022-08-26T19:03:16.393Z,99774.22
2022-08-26T19:06:23.843Z,99773.88
2022-08-26T19:09:28.913Z,99777.06
2022-08-26T19:12:30.719Z,99781.91
2022-08-26T19:15:41.552Z,99780.06
2022-08-26T19:18:44.218Z,99780.87
2022-08-26T19:21:47.492Z,99783.56
2022-08-26T19:24:49.314Z,99782.81
2022-08-26T19:27:51.145Z,99788.22
2022-08-26T19:30:53.567Z,99783.22
2022-08-26T19:33:58.339Z,99783.88
2022-08-26T19:37:00.658Z,99794.56
2022-08-26T19:40:03.617Z,99794.31
2022-08-26T19:43:06.785Z,99791.00
2022-08-26T19:46:11.145Z,99799.94
2022-08-26T19:49:13.049Z,99802.53
2022-08-26T19:52:15.323Z,99807.81
2022-08-26T19:55:19.343Z,99808.88
2022-08-26T19:58:21.644Z,99811.69
2022-08-26T20:01:25.246Z,99809.59
2022-08-26T20:04:46.582Z,99805.72
2022-08-26T20:07:49.195Z,99812.63
2022-08-26T20:10:52.943Z,99813.44
2022-08-26T20:13:55.789Z,99821.91
2022-08-26T20:16:58.214Z,99822.31
2022-08-26T20:20:33.401Z,99818.19
2022-08-26T20:23:36.894Z,99812.84
2022-08-26T20:26:41.771Z,99821.75
2022-08-26T20:29:44.057Z,99812.72
2022-08-26T20:32:46.043Z,99821.03
2022-08-26T20:35:47.750Z,99821.06
2022-08-26T20:38:50.805Z,99827.25
2022-08-26T20:41:52.869Z,99827.31
2022-08-26T20:44:55.168Z,99827.63
2022-08-26T20:47:56.878Z,99835.34
2022-08-26T20:51:00.035Z,99836.06
2022-08-26T20:54:03.729Z,99832.19
2022-08-26T20:57:05.774Z,99832.38
2022-08-26T21:00:08.238Z,99838.94
2022-08-26T21:03:10.141Z,99840.75
2022-08-26T21:06:12.637Z,99843.59
2022-08-26T21:09:16.466Z,99848.09
2022-08-26T21:12:18.516Z,99853.66
2022-08-26T21:15:20.357Z,99845.22
2022-08-26T21:18:22.413Z,99851.69
2022-08-26T21:21:27.696Z,99852.81
2022-08-26T21:24:29.489Z,99853.88
2022-08-26T21:27:31.313Z,99854.38
2022-08-26T21:30:37.106Z,99854.16
2022-08-26T21:33:39.551Z,99851.59
2022-08-26T21:36:41.858Z,99847.94
2022-08-26T21:39:44.150Z,99848.97
2022-08-26T21:42:46.463Z,99855.78
2022-08-26T21:45:50.765Z,99851.25
2022-08-26T21:49:04.525Z,99856.28
2022-08-26T21:52:06.848Z,99858.81
2022-08-26T21:55:11.552Z,99844.19
2022-08-26T21:58:14.330Z,99854.13
2022-08-26T22:01:20.827Z,99860.53
2022-08-26T22:04:23.114Z,99859.56
2022-08-26T22:07:24.759Z,99863.41
2022-08-26T22:10:26.451Z,99866.34
2022-08-26T22:13:31.841Z,99864.31
2022-08-26T22:16:34.016Z,99856.50
2022-08-26T22:19:45.957Z,99855.81
2022-08-26T22:22:48.673Z,99856.44
2022-08-26T22:25:51.000Z,99859.06
2022-08-26T22:28:58.433Z,99857.88
2022-08-26T22:32:01.999Z,99851.31
2022-08-26T22:35:11.399Z,99852.53
2022-08-26T22:38:26.294Z,99854.72
2022-08-26T22:41:28.319Z,99854.59
2022-08-26T22:44:31.486Z,99841.03
2022-08-26T22:47:34.726Z,99840.31
2022-08-26T22:50:38.958Z,99842.31
2022-08-26T22:53:42.042Z,99841.69
2022-08-26T22:56:45.076Z,99840.87
2022-08-26T22:59:47.167Z,99829.62
2022-08-26T23:02:48.994Z,99834.13
2022-08-26T23:05:51.561Z,99848.75
2022-08-26T23:08:55.297Z,99839.25
2022-08-26T23:11:57.284Z,99850.53
2022-08-26T23:14:59.767Z,99844.06
2022-08-26T23:18:02.033Z,99846.22
2022-08-26T23:21:04.154Z,99843.59
2022-08-26T23:24:07.451Z,99839.94
2022-08-26T23:27:09.667Z,99844.47
2022-08-26T23:30:16.782Z,99833.87
2022-08-26T23:33:18.878Z,99831.44
2022-08-26T23:36:22.766Z,99826.91
2022-08-26T23:39:25.615Z,99819.16
2022-08-26T23:42:27.840Z,99828.06
2022-08-26T23:45:32.623Z,99829.88
2022-08-26T23:48:34.565Z,99825.87
2022-08-26T23:51:56.588Z,99835.41
2022-08-26T23:54:58.396Z,99838.78
2022-08-26T23:58:00.341Z,99831.94
